08D

Stanley Municipal Airport

Stanley, North Dakota, USA
METAR K08D 181255Z AUTO 02004KT 10SM 16/14 A3020 RMK AO2
Observed Flight Rules
Jun-18 @ 12:55 UTC (19 minutes ago)
Wind Visibility
20° at 4 knots 10 miles
Temperatures Readings
Current 16°C / 61°F
Dewpoint 14°C / 57°F
Humidity 88%
Altimeter 30.2" Hg
Pressure 1023 hPa
Elevation 684
METAR K08D 181255Z AUTO 02004KT 10SM 16/14 A3020 RMK AO2
Observed Flight Rules
Jun-18 @ 12:55 UTC
(19 minutes ago)
Wind Visibility
20° at 4 knots 10 miles
Temperature Dewpoint
16°C / 61°F 14°C / 57°F
Humidity Altimeter Pressure
88% 30.2" Hg 1023 hPa